Terminal Aerodrome Forecast
Issued by NWS Tulsa, OK

Home | Current Version | Previous Version | Text Only | Print | Product List | Glossary On
Versions: 1 2 3 4 5 6 7 8 9 10 11 12 13 14
000
FTUS44 KTSA 291600 AAB
TAFFSM
TAF AMD
KFSM 291643Z 2917/3012 08005KT P6SM VCSH SCT005 BKN035
      TEMPO 2919/2921 4SM -TSRA BKN005CB
     FM292100 16007KT P6SM BKN035
      TEMPO 2921/2923 4SM -TSRA BKN025CB
     FM300000 20005KT 4SM -RA BR OVC025
     FM300200 VRB03KT 6SM -RA OVC015
     FM300500 27003KT P6SM OVC015
     FM301000 27002KT P6SM OVC050=

USA.gov is the U.S. government's official web portal to all federal, state and local government web resources and services.